Latest Weather Observations for Ivanhoe Airport

IDN60801

Issued at 6:02 pm EDT Sunday 29 March 2015 (issued every 30 minutes, with the page automatically refreshed every 10 minutes)

About weather observations | Map of weather stations | Latest weather observations for NSW | Other Formats
Station Details ID: 049000 Name: IVANHOE AERODROME AWS Lat: -32.88 Lon: 144.31 Height: 100.0 m
Data from the previous 72 hours. | See also: Recent months at Ivanhoe Airport
Date/Time
EDT
Temp
°C
App
Temp
°C
Dew
Point
Rel
Hum
%
Delta-T
°C
Wind Press
QNH
hPa
Press
MSL
hPa
Rain
since 9 am
mm
Dir
 
Spd
km/h
Gust
km/h
Spd
kts
Gust
kts
29/06:00pm 24.4 22.3 3.7 26 10.2 SW 4 7 2 4 1021.6 1021.2 0.0
29/05:30pm 24.6 21.4 3.3 25 10.4 SW 9 13 5 7 1021.5 1021.1 0.0
29/05:00pm 24.7 21.9 3.4 25 10.4 SSW 7 11 4 6 1021.1 1020.7 0.0
29/04:30pm 24.8 21.7 3.5 25 10.5 SW 9 15 5 8 1020.9 1020.5 0.0
29/04:00pm 25.3 22.3 3.9 25 10.6 SSW 9 15 5 8 1021.3 1020.9 0.0
29/03:30pm 25.0 21.6 4.2 26 10.4 SW 11 17 6 9 1021.6 1021.2 0.0
29/03:00pm 24.8 22.3 4.0 26 10.3 SSW 6 15 3 8 1021.9 1021.5 0.0
29/02:30pm 24.9 22.5 4.1 26 10.4 SW 6 15 3 8 1022.2 1021.8 0.0
29/02:00pm 24.8 21.7 3.5 25 10.4 SSW 9 15 5 8 1022.6 1022.2 0.0
29/01:30pm 25.2 22.7 3.8 25 10.6 NNE 6 11 3 6 1023.0 1022.6 0.0
29/01:00pm 24.8 21.8 4.0 26 10.3 SW 9 13 5 7 1023.2 1022.8 0.0
29/12:30pm 24.9 21.9 4.1 26 10.4 SSE 9 15 5 8 1023.3 1022.9 0.0
29/12:00pm 24.6 22.5 3.8 26 10.2 WSW 4 9 2 5 1023.5 1023.1 0.0
29/11:30am 23.7 20.2 3.6 27 9.8 NE 11 17 6 9 1023.5 1023.1 0.0
29/11:00am 23.0 19.2 4.0 29 9.3 NE 13 17 7 9 1023.8 1023.4 0.0
29/10:30am 21.5 17.8 4.6 33 8.3 ENE 13 17 7 9 1023.6 1023.2 0.0
29/10:00am 19.4 15.6 4.0 36 7.3 E 13 17 7 9 1023.2 1022.8 0.0
29/09:30am 18.2 15.2 4.0 39 6.7 ESE 9 13 5 7 1023.3 1022.9 0.0
29/09:00am 16.9 14.4 3.9 42 6.1 SSE 6 7 3 4 1023.2 1022.8 0.0
29/08:30am 13.5 10.7 3.0 49 4.7 SE 7 9 4 5 1022.6 1022.2 0.0
29/08:00am 13.1 9.8 2.6 49 4.6 SSE 9 11 5 6 1022.2 1021.8 0.0
29/07:30am 13.1 10.2 1.5 45 5.0 SE 6 7 3 4 1022.1 1021.7 0.0
29/07:00am 14.5 11.3 3.0 46 5.2 ENE 9 9 5 5 1021.5 1021.1 0.0
29/06:30am 14.9 12.1 3.4 46 5.2 E 7 9 4 5 1021.4 1021.0 0.0
29/06:00am 15.1 12.5 3.0 44 5.5 ESE 6 7 3 4 1021.2 1020.8 0.0
29/05:30am 14.6 11.8 3.1 46 5.2 ESE 7 9 4 5 1021.0 1020.6 0.0
29/05:00am 15.1 12.3 3.0 44 5.5 SE 7 9 4 5 1021.1 1020.7 0.0
29/04:30am 15.6 12.9 2.7 42 5.8 SE 6 7 3 4 1021.0 1020.6 0.0
29/04:00am 15.3 13.0 2.5 42 5.7 SSE 4 7 2 4 1021.1 1020.7 0.0
29/03:30am 15.9 13.1 3.0 42 5.9 SE 7 9 4 5 1020.9 1020.5 0.0
29/03:00am 16.6 13.4 3.0 40 6.2 SE 9 11 5 6 1020.8 1020.4 0.0
29/02:30am 16.9 13.7 3.2 40 6.3 SSE 9 9 5 5 1021.2 1020.8 0.0
29/02:00am 17.2 14.0 3.1 39 6.5 SE 9 11 5 6 1021.4 1021.0 0.0
29/01:30am 17.3 14.5 2.9 38 6.6 SSE 7 9 4 5 1021.6 1021.2 0.0
29/01:00am 17.5 14.2 2.7 37 6.8 SSE 9 11 5 6 1021.6 1021.2 0.0
29/12:30am 18.2 15.4 2.9 36 7.1 SSE 7 9 4 5 1021.6 1021.2 0.0
29/12:00am 18.3 15.4 2.6 35 7.2 SE 7 9 4 5 1021.4 1021.0 0.0
 
Date/Time
EDT
Temp
°C
App
Temp
°C
Dew
Point
Rel
Hum
%
Delta-T
°C
Wind Press
QNH
hPa
Press
MSL
hPa
Rain
since 9 am
mm
Dir
 
Spd
km/h
Gust
km/h
Spd
kts
Gust
kts
28/11:30pm 18.6 15.4 2.9 35 7.3 SSE 9 11 5 6 1022.0 1021.6 0.0
28/11:00pm 18.7 15.8 2.5 34 7.4 SSE 7 9 4 5 1022.2 1021.8 0.0
28/10:30pm 19.1 15.8 2.5 33 7.7 SSE 9 11 5 6 1022.1 1021.7 0.0
28/10:00pm 19.6 16.4 2.9 33 7.8 SSE 9 11 5 6 1022.0 1021.6 0.0
28/09:30pm 19.8 17.0 3.1 33 7.8 S 7 9 4 5 1021.9 1021.5 0.0
28/09:00pm 20.3 17.5 3.1 32 8.1 S 7 9 4 5 1021.7 1021.3 0.0
28/08:30pm 20.7 17.9 3.0 31 8.4 S 7 9 4 5 1021.5 1021.1 0.0
28/08:00pm 21.4 18.8 3.1 30 8.7 S 6 7 3 4 1021.2 1020.8 0.0
28/07:30pm 22.3 19.5 3.4 29 9.1 S 7 13 4 7 1021.1 1020.7 0.0
28/07:00pm 23.4 21.6 3.4 27 9.7 SE 2 7 1 4 1020.8 1020.4 0.0
28/06:30pm 23.7 21.1 3.1 26 10.0 S 6 11 3 6 1020.6 1020.2 0.0
28/06:00pm 23.9 20.8 3.8 27 9.9 SSW 9 13 5 7 1020.6 1020.2 0.0
28/05:30pm 24.2 21.7 3.5 26 10.2 S 6 15 3 8 1020.7 1020.3 0.0
28/05:00pm 24.6 21.4 3.3 25 10.4 WSW 9 15 5 8 1021.0 1020.6 0.0
28/04:30pm 25.0 22.8 3.6 25 10.6 E 4 13 2 7 1021.3 1020.9 0.0
28/04:00pm 25.7 23.3 4.2 25 10.8 N 6 9 3 5 1021.4 1021.0 0.0
28/03:30pm 24.0 21.5 3.9 27 9.9 N 6 9 3 5 1021.8 1021.4 0.0
28/03:00pm 23.5 20.5 4.0 28 9.6 SSW 9 15 5 8 1022.0 1021.6 0.0
28/02:30pm 23.6 20.3 4.5 29 9.5 SSW 11 17 6 9 1022.3 1021.9 0.0
28/02:00pm 22.6 19.6 4.2 30 9.0 SW 9 13 5 7 1023.0 1022.6 0.0
28/01:30pm 22.2 19.3 4.7 32 8.7 S 9 15 5 8 1023.4 1023.0 0.0
28/01:00pm 21.7 18.8 4.7 33 8.3 SSW 9 15 5 8 1023.8 1023.4 0.0
28/12:30pm 21.3 18.9 5.2 35 8.0 S 7 15 4 8 1024.4 1024.0 0.0
28/12:00pm 20.5 18.1 4.5 35 7.8 NNE 6 11 3 6 1024.9 1024.5 0.0
28/11:30am 19.8 17.3 4.7 37 7.3 SSE 7 13 4 7 1025.2 1024.8 0.0
28/11:00am 18.7 15.8 4.5 39 6.8 E 9 13 5 7 1025.3 1024.9 0.0
28/10:30am 17.7 14.4 4.6 42 6.3 ESE 11 15 6 8 1025.6 1025.2 0.0
28/10:00am 16.2 12.9 4.3 45 5.6 E 11 17 6 9 1025.7 1025.3 0.0
28/09:30am 14.6 11.5 3.7 48 5.0 SE 9 15 5 8 1025.7 1025.3 0.0
28/09:00am 12.9 9.0 3.3 52 4.3 SE 13 17 7 9 1025.4 1025.0 0.0
28/08:30am 11.4 8.2 3.2 57 3.6 SSE 9 11 5 6 1025.0 1024.6 0.0
28/08:00am 9.7 7.1 3.0 63 2.9 S 6 7 3 4 1024.7 1024.3 0.0
28/07:30am 9.4 6.6 2.9 64 2.8 S 7 9 4 5 1024.2 1023.8 0.0
28/07:00am 9.7 6.9 3.0 63 2.9 S 7 9 4 5 1024.0 1023.6 0.0
28/06:30am 9.8 6.6 3.1 63 2.9 S 9 11 5 6 1023.7 1023.3 0.0
28/06:00am 10.3 6.8 3.3 62 3.0 S 11 13 6 7 1023.7 1023.3 0.0
28/05:30am 10.8 7.7 3.6 61 3.2 S 9 13 5 7 1023.5 1023.1 0.0
28/05:00am 11.2 7.7 3.7 60 3.3 S 11 13 6 7 1023.4 1023.0 0.0
28/04:30am 11.3 8.1 3.3 58 3.5 S 9 13 5 7 1023.6 1023.2 0.0
28/04:00am 11.8 8.3 3.6 57 3.6 SSW 11 13 6 7 1023.4 1023.0 0.0
28/03:30am 12.4 9.3 3.6 55 3.9 S 9 13 5 7 1023.4 1023.0 0.0
28/03:00am 13.3 9.6 4.2 54 4.1 S 13 17 7 9 1023.6 1023.2 0.0
28/02:30am 13.6 9.4 3.9 52 4.4 S 15 20 8 11 1023.5 1023.1 0.0
28/02:00am 14.4 10.3 4.4 51 4.6 S 15 20 8 11 1023.7 1023.3 0.0
28/01:30am 15.0 11.3 4.4 49 4.9 S 13 17 7 9 1023.9 1023.5 0.0
28/01:00am 14.7 11.3 4.1 49 4.9 S 11 15 6 8 1023.9 1023.5 0.0
28/12:30am 14.7 11.6 3.8 48 5.0 S 9 13 5 7 1024.1 1023.7 0.0
28/12:00am 15.3 11.9 4.1 47 5.2 S 11 13 6 7 1024.2 1023.8 0.0
 
Date/Time
EDT
Temp
°C
App
Temp
°C
Dew
Point
Rel
Hum
%
Delta-T
°C
Wind Press
QNH
hPa
Press
MSL
hPa
Rain
since 9 am
mm
Dir
 
Spd
km/h
Gust
km/h
Spd
kts
Gust
kts
27/11:30pm 15.6 13.0 4.0 46 5.4 S 7 9 4 5 1024.2 1023.8 0.0
27/11:00pm 16.7 13.3 4.1 43 5.9 S 11 13 6 7 1024.2 1023.8 0.0
27/10:30pm 16.7 13.3 4.1 43 5.9 S 11 15 6 8 1024.2 1023.8 0.0
27/10:00pm 16.8 13.7 3.8 42 6.0 S 9 11 5 6 1024.2 1023.8 0.0
27/09:30pm 17.4 14.0 4.0 41 6.3 S 11 13 6 7 1024.0 1023.6 0.0
27/09:00pm 18.0 14.9 3.5 38 6.8 SSW 9 11 5 6 1023.9 1023.5 0.0
27/08:30pm 18.9 15.5 3.9 37 7.1 SSW 11 13 6 7 1023.5 1023.1 0.0
27/08:00pm 19.6 16.6 4.1 36 7.4 SSW 9 13 5 7 1023.3 1022.9 0.0
27/07:30pm 20.5 16.7 4.1 34 7.9 SSW 13 20 7 11 1023.0 1022.6 0.0
27/07:00pm 21.5 17.8 4.6 33 8.3 SSW 13 24 7 13 1022.9 1022.5 0.0
27/06:30pm 21.9 17.1 4.9 33 8.4 SSW 19 26 10 14 1022.6 1022.2 0.0
27/06:00pm 22.4 17.6 4.9 32 8.7 SSW 19 26 10 14 1022.5 1022.1 0.0
27/05:30pm 22.8 18.0 4.8 31 9.0 SW 19 28 10 15 1022.3 1021.9 0.0
27/05:00pm 22.3 17.9 4.8 32 8.6 SSW 17 26 9 14 1022.4 1022.0 0.0
27/04:30pm 22.7 18.4 5.2 32 8.8 SSW 17 28 9 15 1022.6 1022.2 0.0
27/04:00pm 22.1 17.4 5.1 33 8.4 SSW 19 28 10 15 1022.8 1022.4 0.0
27/03:30pm 21.9 17.6 5.3 34 8.3 S 17 28 9 15 1023.1 1022.7 0.0
27/03:00pm 21.1 17.2 5.5 36 7.7 SSW 15 26 8 14 1023.5 1023.1 0.0
27/02:30pm 21.7 17.6 6.0 36 7.9 SW 17 30 9 16 1024.1 1023.7 0.0
27/02:00pm 20.2 16.1 6.2 40 7.0 SSW 17 26 9 14 1024.6 1024.2 0.0
27/01:30pm 19.3 15.6 6.1 42 6.6 SSW 15 26 8 14 1025.3 1024.9 0.0
27/01:00pm 18.9 14.8 6.4 44 6.2 SW 17 28 9 15 1025.9 1025.5 0.0
27/12:30pm 18.4 14.1 6.9 47 5.8 SSW 19 26 10 14 1026.4 1026.1 0.0
27/12:00pm 17.4 13.1 6.9 50 5.2 SSW 19 28 10 15 1026.9 1026.5 0.0
27/11:30am 16.6 12.1 7.0 53 4.8 SW 20 28 11 15 1027.2 1026.8 0.0
27/11:00am 15.8 11.3 7.0 56 4.3 SSW 20 28 11 15 1027.4 1027.0 0.0
27/10:30am 15.2 10.3 7.0 58 4.0 SSW 22 32 12 17 1027.5 1027.1 0.0
27/10:00am 14.2 9.6 6.6 60 3.7 SSW 20 28 11 15 1027.3 1026.9 0.0
27/09:30am 13.1 8.3 5.5 60 3.6 SW 20 28 11 15 1027.3 1026.9 0.0
27/09:00am 12.2 7.8 4.9 61 3.3 SW 17 24 9 13 1027.1 1026.7 0.0
27/08:30am 11.0 6.8 3.8 61 3.2 SW 15 22 8 12 1026.7 1026.4 0.0
27/08:00am 9.7 6.1 3.0 63 2.9 SW 11 15 6 8 1026.3 1026.0 0.0
27/07:30am 8.9 5.2 2.5 64 2.7 WSW 11 13 6 7 1026.2 1025.9 0.0
27/07:00am 9.2 5.5 2.3 62 2.9 SW 11 13 6 7 1025.9 1025.5 0.0
27/06:30am 9.5 5.8 2.1 60 3.1 SW 11 17 6 9 1025.7 1025.3 0.0
27/06:00am 9.6 5.8 1.8 58 3.3 WSW 11 15 6 8 1025.4 1025.0 0.0
27/05:30am 9.4 5.5 1.3 57 3.4 WSW 11 13 6 7 1025.2 1024.8 0.0
27/05:00am 9.5 6.0 1.2 56 3.4 SW 9 11 5 6 1025.0 1024.6 0.0
27/04:30am 9.9 6.4 1.3 55 3.6 SW 9 9 5 5 1025.0 1024.6 0.0
27/04:00am 10.4 6.9 1.2 53 3.8 SW 9 13 5 7 1024.9 1024.5 0.0
27/03:30am 10.9 7.4 1.2 51 4.1 SW 9 13 5 7 1024.9 1024.5 0.0
27/03:00am 11.6 7.3 1.3 49 4.3 SW 13 17 7 9 1025.0 1024.6 0.0
27/02:30am 11.7 7.7 0.2 45 4.7 SW 11 15 6 8 1025.3 1024.9 0.0
27/02:00am 12.5 8.1 0.3 43 5.1 SW 13 17 7 9 1025.3 1024.9 0.0
27/01:30am 13.1 8.7 0.2 41 5.4 SW 13 17 7 9 1025.4 1025.0 0.0
27/01:00am 13.9 9.1 0.5 40 5.7 SW 15 20 8 11 1025.4 1025.0 0.0
27/12:30am 14.5 10.2 0.7 39 5.9 SW 13 19 7 10 1025.3 1024.9 0.0
27/12:00am 14.7 10.7 0.2 37 6.1 WSW 11 15 6 8 1025.2 1024.8 0.0
 
Date/Time
EDT
Temp
°C
App
Temp
°C
Dew
Point
Rel
Hum
%
Delta-T
°C
Wind Press
QNH
hPa
Press
MSL
hPa
Rain
since 9 am
mm
Dir
 
Spd
km/h
Gust
km/h
Spd
kts
Gust
kts
26/11:30pm 15.3 10.9 0.3 36 6.4 WSW 13 20 7 11 1025.1 1024.7 0.0
26/11:00pm 15.1 10.6 -0.2 35 6.4 WSW 13 15 7 8 1025.0 1024.6 0.0
26/10:30pm 15.1 11.4 -0.2 35 6.5 WSW 9 11 5 6 1025.0 1024.6 0.0
26/10:00pm 15.3 11.6 -0.1 35 6.5 WSW 9 11 5 6 1024.9 1024.5 0.0
26/09:30pm 15.8 12.1 0.0 34 6.8 WSW 9 9 5 5 1024.6 1024.2 0.0
26/09:00pm 16.7 13.0 -0.1 32 7.2 SW 9 13 5 7 1024.3 1023.9 0.0
26/08:30pm 17.6 13.1 -0.2 30 7.7 SW 13 19 7 10 1024.0 1023.6 0.0
26/08:00pm 18.2 13.4 -0.1 29 7.9 SW 15 20 8 11 1023.6 1023.2 0.0
26/07:30pm 18.9 13.7 0.0 28 8.3 SW 17 22 9 12 1023.3 1022.9 0.0
26/07:00pm 19.9 14.4 0.4 27 8.7 SW 19 33 10 18 1022.9 1022.5 0.0
26/06:30pm 20.7 14.8 -0.6 24 9.4 SW 20 30 11 16 1022.7 1022.3 0.0

Other Formats:

Comma delimited format used in spreadsheet applications
http://www.bom.gov.au/fwo/IDN60801/IDN60801.95697.axf

JavaScript Object Notation format (JSON) in row-major order
http://www.bom.gov.au/fwo/IDN60801/IDN60801.95697.json